This is the latest recevied weather packets stored in our database for station/object DB0MOD. If no packets are shown the sender has not sent any weather packets the latest 1 day(s).
| Time | Temp. | Humidity | Pressure | Rain* | Wind** | Luminosity | Snow |
|---|---|---|---|---|---|---|---|
| 1778086440 | 7.78° C | 10% | 1007.1 hPa | 0 mm | - | - | - |
| 1778085840 | 7.78° C | 10% | 1007.2 hPa | 0 mm | - | - | - |
| 1778085240 | 7.22° C | 10% | 1007.1 hPa | 0 mm | - | - | - |
| 1778084940 | 7.22° C | 10% | 1007.1 hPa | 0 mm | - | - | - |
| 1778084640 | 7.22° C | 10% | 1006.9 hPa | 0 mm | - | - | - |
| 1778084040 | 7.78° C | 10% | 1006.9 hPa | 0 mm | - | - | - |
| 1778081640 | 8.89° C | 10% | 1006.8 hPa | 0 mm | - | - | - |
| 1778070841 | 14.44° C | 24% | 1006 hPa | 0 mm | - | - | - |
| 1778066041 | 17.78° C | 44% | 1006.6 hPa | 0 mm | - | - | - |
| 1778065741 | 18.33° C | 44% | 1006.6 hPa | 0 mm | - | - | - |
| 1778065441 | 18.89° C | 45% | 1006.7 hPa | 0 mm | - | - | - |
| 1778064841 | 19.44° C | 45% | 1006.7 hPa | 0 mm | - | - | - |
| 1778064541 | 20° C | 45% | 1006.5 hPa | 0 mm | - | - | - |
| 1778064241 | 20° C | 45% | 1006.6 hPa | 0 mm | - | - | - |
| 1778063941 | 20.56° C | 45% | 1006.5 hPa | 0 mm | - | - | - |
| 1778063641 | 20.56° C | 45% | 1006.4 hPa | 0 mm | - | - | - |
| 1778063341 | 20.56° C | 45% | 1006.3 hPa | 0 mm | - | - | - |
| 1778063041 | 21.11° C | 45% | 1006.5 hPa | 0 mm | - | - | - |
| 1778062741 | 21.67° C | 44% | 1006.6 hPa | 0 mm | - | - | - |
| 1778062441 | 21.67° C | 44% | 1006.5 hPa | 0 mm | - | - | - |
| 1778062141 | 21.67° C | 44% | 1006.4 hPa | 0 mm | - | - | - |
| 1778061241 | 19.44° C | 38% | 1006.3 hPa | 0 mm | - | - | - |
| 1778060941 | 18.89° C | 35% | 1006.4 hPa | 0 mm | - | - | - |
| 1778060641 | 18.33° C | 34% | 1006.4 hPa | 0 mm | - | - | - |
| 1778060341 | 18.33° C | 32% | 1006.5 hPa | 0 mm | - | - | - |
* Rain latest hour (hover to see other rain measurements)
** Current wind speed in m/s (hover to see current wind gust speed)